McClelland, Iowa
Current Conditions -  °F | °C
As of 8:55 PM on Sunday 23 Nov 2014 (Local Time) from KCBF Reporting Station
Broken Clouds Broken Clouds  
Wind Chill: 33°   Ceiling: 4100
Heat Index: 41°   Visibility: 10mi
Dew Point: 32°   Wind: 15mph
Humidity: 70%   Direction: 330°NNW
Pressure: 29.49"   Gusts: 26mph
Location:  41.33°N, 95.68°W
Report Text: KCBF 240255Z AUTO 33013G23KT 10SM BKN041 BKN120 05/M00 A2949 RMK AO2
Loading
Personal Weather Stations






























Interactive Weather Map New forecast layout! Learn more

10-Day Weather Forecast

Advertisements
Track Severe Weather on mobile